createdAt,value
2023-04-26T00:01:35.452Z,3.50
2023-04-26T00:04:03.100Z,3.40
2023-04-26T00:06:30.194Z,3.27
2023-04-26T00:08:56.896Z,3.50
2023-04-26T00:11:23.668Z,3.70
2023-04-26T00:13:50.383Z,3.40
2023-04-26T00:16:18.515Z,3.30
2023-04-26T00:18:46.266Z,3.03
2023-04-26T00:21:13.068Z,3.47
2023-04-26T00:23:39.851Z,3.78
2023-04-26T00:26:06.597Z,3.40
2023-04-26T00:28:33.563Z,3.40
2023-04-26T00:31:00.420Z,3.50
2023-04-26T00:33:27.131Z,3.20
2023-04-26T00:35:53.797Z,3.28
2023-04-26T00:38:20.635Z,3.30
2023-04-26T00:40:47.569Z,3.30
2023-04-26T00:43:14.398Z,3.10
2023-04-26T00:45:42.411Z,3.03
2023-04-26T00:48:09.816Z,3.10
2023-04-26T00:50:37.389Z,3.20
2023-04-26T00:53:04.749Z,3.20
2023-04-26T00:55:32.938Z,3.33
2023-04-26T00:58:02.069Z,3.05
2023-04-26T01:03:24.331Z,3.17
2023-04-26T01:05:54.229Z,3.42
2023-04-26T01:08:22.400Z,3.40
2023-04-26T01:10:49.867Z,3.80
2023-04-26T01:13:20.389Z,3.45
2023-04-26T01:15:55.374Z,3.30
2023-04-26T01:18:22.939Z,3.17
2023-04-26T01:20:50.050Z,3.13
2023-04-26T01:23:17.383Z,3.10
2023-04-26T01:25:44.345Z,3.38
2023-04-26T01:28:11.543Z,3.80
2023-04-26T01:30:38.222Z,3.42
2023-04-26T01:33:05.170Z,4.37
2023-04-26T01:35:31.867Z,4.07
2023-04-26T01:37:58.586Z,4.03
2023-04-26T01:40:25.374Z,4.35
2023-04-26T01:42:52.385Z,5.05
2023-04-26T01:45:19.144Z,4.87
2023-04-26T01:47:46.212Z,5.03
2023-04-26T01:50:12.970Z,4.80
2023-04-26T01:52:39.655Z,5.68
2023-04-26T01:55:07.432Z,5.28
2023-04-26T01:57:34.155Z,5.40
2023-04-26T02:00:02.455Z,5.22
2023-04-26T02:02:29.436Z,5.10
2023-04-26T02:04:56.227Z,5.43
2023-04-26T02:07:23.074Z,5.85
2023-04-26T02:09:49.990Z,5.30
2023-04-26T02:12:17.045Z,5.13
2023-04-26T02:14:43.830Z,5.55
2023-04-26T02:17:11.193Z,5.32
2023-04-26T02:19:37.945Z,4.72
2023-04-26T02:22:06.321Z,4.87
2023-04-26T02:24:33.532Z,4.28
2023-04-26T02:27:03.746Z,4.95
2023-04-26T02:29:43.673Z,4.13
2023-04-26T02:32:11.636Z,4.35
2023-04-26T02:34:38.350Z,4.77
2023-04-26T02:37:05.094Z,4.75
2023-04-26T02:39:32.286Z,4.10
2023-04-26T02:41:59.532Z,3.90
2023-04-26T02:44:29.821Z,3.83
2023-04-26T02:46:56.706Z,3.50
2023-04-26T02:49:24.003Z,3.83
2023-04-26T02:51:50.930Z,3.72
2023-04-26T02:54:17.938Z,3.45
2023-04-26T02:56:44.630Z,3.72
2023-04-26T02:59:11.325Z,3.37
2023-04-26T03:01:38.096Z,2.92
2023-04-26T03:04:05.261Z,3.42
2023-04-26T03:06:33.435Z,3.72
2023-04-26T03:09:00.270Z,3.90
2023-04-26T03:11:27.198Z,4.00
2023-04-26T03:13:53.950Z,3.78
2023-04-26T03:16:24.146Z,3.70
2023-04-26T03:18:51.114Z,3.80
2023-04-26T03:21:18.352Z,3.38
2023-04-26T03:23:45.092Z,3.73
2023-04-26T03:26:11.983Z,3.53
2023-04-26T03:28:38.937Z,3.67
2023-04-26T03:31:05.737Z,3.88
2023-04-26T03:33:32.453Z,3.50
2023-04-26T03:35:59.168Z,3.47
2023-04-26T03:38:26.212Z,3.40
2023-04-26T03:40:52.928Z,3.22
2023-04-26T03:43:19.877Z,3.05
2023-04-26T03:45:50.467Z,3.58
2023-04-26T03:48:17.406Z,3.53
2023-04-26T03:50:45.443Z,3.80
2023-04-26T03:53:12.574Z,3.40
2023-04-26T03:55:39.320Z,3.50
2023-04-26T03:58:08.088Z,3.60
2023-04-26T04:00:38.427Z,3.60
2023-04-26T04:03:06.977Z,3.38
2023-04-26T04:05:34.330Z,3.90
2023-04-26T04:08:01.828Z,3.20
2023-04-26T04:10:29.193Z,3.22
2023-04-26T04:12:55.888Z,3.17
2023-04-26T04:15:23.001Z,3.20
2023-04-26T04:17:49.740Z,3.35
2023-04-26T04:20:16.651Z,3.67
2023-04-26T04:22:43.426Z,3.20
2023-04-26T04:25:10.581Z,3.37
2023-04-26T04:27:38.059Z,3.17
2023-04-26T04:30:07.364Z,3.38
2023-04-26T04:32:34.183Z,3.38
2023-04-26T04:35:01.570Z,3.55
2023-04-26T04:37:28.889Z,3.27
2023-04-26T04:39:55.964Z,3.38
2023-04-26T04:42:23.467Z,2.90
2023-04-26T04:44:50.579Z,3.22
2023-04-26T04:47:17.812Z,2.90
2023-04-26T04:49:44.818Z,3.10
2023-04-26T04:52:11.564Z,3.15
2023-04-26T04:54:38.438Z,2.90
2023-04-26T04:57:06.758Z,2.95
2023-04-26T04:59:33.549Z,3.03
2023-04-26T05:02:00.357Z,3.00
2023-04-26T05:04:27.536Z,3.00
2023-04-26T05:06:54.401Z,2.90
2023-04-26T05:09:21.611Z,3.10
2023-04-26T05:11:48.377Z,2.88
2023-04-26T05:14:15.131Z,2.97
2023-04-26T05:16:42.076Z,3.30
2023-04-26T05:19:09.673Z,2.95
2023-04-26T05:21:36.665Z,3.05
2023-04-26T05:24:04.227Z,3.08
2023-04-26T05:26:31.066Z,2.90
2023-04-26T05:28:58.069Z,3.30
2023-04-26T05:31:24.832Z,2.90
2023-04-26T05:33:51.843Z,3.03
2023-04-26T05:36:19.465Z,2.95
2023-04-26T05:38:48.773Z,3.37
2023-04-26T05:41:15.541Z,3.50
2023-04-26T05:43:42.248Z,3.30
2023-04-26T05:46:09.075Z,3.38
2023-04-26T05:48:36.038Z,3.60
2023-04-26T05:51:04.088Z,3.30
2023-04-26T05:53:31.142Z,3.47
2023-04-26T05:56:19.262Z,3.55
2023-04-26T06:01:27.899Z,3.42
2023-04-26T06:03:57.997Z,3.67
2023-04-26T06:06:28.474Z,3.90
2023-04-26T06:08:55.609Z,3.17
2023-04-26T06:11:44.107Z,3.53
2023-04-26T06:14:28.905Z,3.30
2023-04-26T06:28:24.837Z,3.58
2023-04-26T06:30:51.837Z,3.50
2023-04-26T06:33:18.608Z,3.63
2023-04-26T06:35:46.498Z,3.88
2023-04-26T06:38:13.238Z,3.63
2023-04-26T06:40:40.284Z,3.90
2023-04-26T06:43:07.070Z,3.80
2023-04-26T06:45:41.638Z,4.00
2023-04-26T06:48:15.903Z,3.65
2023-04-26T06:50:42.741Z,3.40
2023-04-26T06:53:09.530Z,4.03
2023-04-26T06:55:36.606Z,4.80
2023-04-26T06:58:03.409Z,4.40
2023-04-26T07:00:30.603Z,4.25
2023-04-26T07:02:57.829Z,5.43
2023-04-26T07:05:24.861Z,7.53
2023-04-26T07:07:51.578Z,7.13
2023-04-26T07:10:18.301Z,5.63
2023-04-26T07:12:45.265Z,3.85
2023-04-26T07:15:12.306Z,3.28
2023-04-26T07:17:39.069Z,3.33
2023-04-26T07:20:07.718Z,3.07
2023-04-26T07:26:42.036Z,2.42
2023-04-26T07:33:19.825Z,2.17
2023-04-26T07:36:40.282Z,2.90
2023-04-26T07:42:55.108Z,2.78
2023-04-26T07:45:54.275Z,2.47
2023-04-26T07:48:43.673Z,2.38
2023-04-26T07:51:28.433Z,2.20
2023-04-26T07:54:09.713Z,2.20
2023-04-26T07:56:50.089Z,2.20
2023-04-26T07:59:31.110Z,2.45
2023-04-26T08:02:07.936Z,1.80
2023-04-26T08:11:22.967Z,1.40
2023-04-26T08:13:52.837Z,1.23
2023-04-26T08:16:19.957Z,1.30
2023-04-26T08:18:48.694Z,1.20
2023-04-26T08:21:15.751Z,1.75
2023-04-26T08:23:57.011Z,1.65
2023-04-26T08:26:27.152Z,1.60
2023-04-26T08:28:54.090Z,1.50
2023-04-26T08:31:23.109Z,1.20
2023-04-26T08:33:50.301Z,1.27
2023-04-26T08:36:17.219Z,1.50
2023-04-26T08:38:47.913Z,1.23
2023-04-26T08:41:15.375Z,1.20
2023-04-26T08:43:49.285Z,1.00
2023-04-26T08:46:21.186Z,1.20
2023-04-26T08:49:01.341Z,1.10
2023-04-26T08:51:31.974Z,0.85
2023-04-26T08:54:00.042Z,0.80
2023-04-26T08:56:30.731Z,0.70
2023-04-26T08:58:59.631Z,0.82
2023-04-26T09:01:28.998Z,1.00
2023-04-26T09:04:00.095Z,0.88
2023-04-26T09:06:38.913Z,1.20
2023-04-26T09:09:12.859Z,0.90
2023-04-26T09:11:59.988Z,1.00
2023-04-26T09:14:27.655Z,1.00
2023-04-26T09:17:06.247Z,0.90
2023-04-26T09:19:40.430Z,0.88
2023-04-26T09:22:07.547Z,1.30
2023-04-26T09:24:52.596Z,0.90
2023-04-26T09:27:20.210Z,1.17
2023-04-26T09:30:02.256Z,1.05
2023-04-26T09:32:43.444Z,1.10
2023-04-26T09:35:25.992Z,1.47
2023-04-26T09:38:13.076Z,1.00
2023-04-26T09:40:41.840Z,1.08
2023-04-26T09:43:14.581Z,1.10
2023-04-26T09:45:52.989Z,1.10
2023-04-26T09:48:28.885Z,1.10
2023-04-26T09:51:11.371Z,1.20
2023-04-26T09:53:51.034Z,1.00
2023-04-26T09:56:21.265Z,1.20
2023-04-26T09:58:48.721Z,1.10
2023-04-26T10:01:28.146Z,1.20
2023-04-26T10:03:57.705Z,0.98
2023-04-26T10:06:25.271Z,1.15
2023-04-26T10:08:53.921Z,1.05
2023-04-26T10:11:22.459Z,1.10
2023-04-26T10:13:51.721Z,1.00
2023-04-26T10:16:24.807Z,1.05
2023-04-26T10:18:55.788Z,1.10
2023-04-26T10:21:33.239Z,0.90
2023-04-26T10:24:00.848Z,1.10
2023-04-26T10:26:53.132Z,1.20
2023-04-26T10:29:24.061Z,1.20
2023-04-26T10:32:12.815Z,1.30
2023-04-26T10:34:48.465Z,1.23
2023-04-26T10:37:19.602Z,1.30
2023-04-26T10:39:53.090Z,1.40
2023-04-26T10:43:01.161Z,1.10
2023-04-26T10:45:30.089Z,1.10
2023-04-26T10:48:30.644Z,1.00
2023-04-26T10:51:08.647Z,1.20
2023-04-26T10:53:51.573Z,1.20
2023-04-26T10:56:30.642Z,1.30
2023-04-26T10:59:33.473Z,1.52
2023-04-26T11:02:04.357Z,1.33
2023-04-26T11:04:53.780Z,1.40
2023-04-26T11:11:10.191Z,1.20
2023-04-26T11:13:42.122Z,1.40
2023-04-26T11:16:11.097Z,1.40
2023-04-26T11:18:45.239Z,1.40
2023-04-26T11:21:19.380Z,1.40
2023-04-26T11:24:00.534Z,1.40
2023-04-26T11:26:33.458Z,1.30
2023-04-26T11:29:01.585Z,1.67
2023-04-26T11:31:31.075Z,1.40
2023-04-26T11:34:50.852Z,1.60
2023-04-26T11:37:19.150Z,1.75
2023-04-26T11:39:51.362Z,1.50
2023-04-26T11:42:24.876Z,1.77
2023-04-26T11:45:14.796Z,1.40
2023-04-26T11:47:44.492Z,1.50
2023-04-26T11:50:12.166Z,1.75
2023-04-26T11:52:41.798Z,1.30
2023-04-26T11:55:12.707Z,1.50
2023-04-26T11:57:41.092Z,1.48
2023-04-26T12:00:16.809Z,1.60
2023-04-26T12:02:52.354Z,1.80
2023-04-26T12:05:28.135Z,1.48
2023-04-26T12:07:57.182Z,1.60
2023-04-26T12:10:29.510Z,1.60
2023-04-26T12:12:58.803Z,1.67
2023-04-26T12:15:35.068Z,1.73
2023-04-26T12:18:11.049Z,1.50
2023-04-26T12:20:42.986Z,1.60
2023-04-26T12:23:12.128Z,1.50
2023-04-26T12:25:41.516Z,1.90
2023-04-26T12:28:13.920Z,1.75
2023-04-26T12:30:41.192Z,1.70
2023-04-26T12:33:16.201Z,1.80
2023-04-26T12:35:43.729Z,2.20
2023-04-26T12:38:11.601Z,1.80
2023-04-26T12:40:38.915Z,1.77
2023-04-26T12:43:05.847Z,1.83
2023-04-26T12:45:32.766Z,2.00
2023-04-26T12:48:31.867Z,1.80
2023-04-26T12:50:58.763Z,1.60
2023-04-26T12:53:25.734Z,1.70
2023-04-26T12:55:52.691Z,1.75
2023-04-26T12:58:19.613Z,2.03
2023-04-26T13:00:46.425Z,1.90
2023-04-26T13:03:16.365Z,1.90
2023-04-26T13:05:43.428Z,1.77
2023-04-26T13:08:12.438Z,1.90
2023-04-26T13:10:39.717Z,1.83
2023-04-26T13:13:07.168Z,1.80
2023-04-26T13:15:34.147Z,1.90
2023-04-26T13:18:01.400Z,1.48
2023-04-26T13:20:31.090Z,1.45
2023-04-26T13:22:57.990Z,1.50
2023-04-26T13:25:27.832Z,1.40
2023-04-26T13:27:55.553Z,1.40
2023-04-26T13:30:22.457Z,1.65
2023-04-26T13:32:57.505Z,1.45
2023-04-26T13:35:32.407Z,1.40
2023-04-26T13:37:59.253Z,1.40
2023-04-26T13:40:26.332Z,1.50
2023-04-26T13:42:54.600Z,1.50
2023-04-26T13:45:24.737Z,1.30
2023-04-26T13:47:51.588Z,1.23
2023-04-26T13:50:18.787Z,1.70
2023-04-26T13:52:46.098Z,1.30
2023-04-26T13:55:13.012Z,1.20
2023-04-26T13:57:39.907Z,0.85
2023-04-26T14:00:10.973Z,1.40
2023-04-26T14:02:39.440Z,1.40
2023-04-26T14:05:09.491Z,1.40
2023-04-26T14:07:39.800Z,1.38
2023-04-26T14:10:16.297Z,1.30
2023-04-26T14:13:20.766Z,1.50
2023-04-26T14:15:56.451Z,1.65
2023-04-26T14:18:28.465Z,1.60
2023-04-26T14:20:58.298Z,1.20
2023-04-26T14:34:06.447Z,1.60
2023-04-26T14:36:33.378Z,1.80
2023-04-26T14:39:44.178Z,1.58
2023-04-26T14:42:16.751Z,1.98
2023-04-26T14:45:43.883Z,1.60
2023-04-26T14:48:12.519Z,1.50
2023-04-26T14:50:39.451Z,1.77
2023-04-26T14:53:06.787Z,1.50
2023-04-26T14:55:33.670Z,1.85
2023-04-26T14:58:00.688Z,1.48
2023-04-26T15:00:30.377Z,1.90
2023-04-26T15:03:01.899Z,1.70
2023-04-26T15:05:28.995Z,1.90
2023-04-26T15:07:56.980Z,1.70
2023-04-26T15:10:23.858Z,1.60
2023-04-26T15:12:51.241Z,1.30
2023-04-26T15:15:18.206Z,1.65
2023-04-26T15:17:48.225Z,1.70
2023-04-26T15:20:15.926Z,1.50
2023-04-26T15:22:43.298Z,1.52
2023-04-26T15:25:43.145Z,1.70
2023-04-26T15:28:17.875Z,2.00
2023-04-26T15:30:50.573Z,1.40
2023-04-26T15:33:57.945Z,1.60
2023-04-26T15:36:24.913Z,1.52
2023-04-26T15:38:52.018Z,1.80
2023-04-26T15:41:18.976Z,1.80
2023-04-26T15:43:45.945Z,1.65
2023-04-26T15:46:19.174Z,1.70
2023-04-26T15:48:59.070Z,1.70
2023-04-26T15:51:54.579Z,1.80
2023-04-26T15:58:37.125Z,2.00
2023-04-26T19:14:23.584Z,2.05
2023-04-26T19:16:54.361Z,2.30
2023-04-26T19:20:01.613Z,2.33
2023-04-26T19:29:18.132Z,2.40
2023-04-26T19:31:47.842Z,2.65
2023-04-26T19:37:19.537Z,2.60
2023-04-26T19:42:47.388Z,2.88
2023-04-26T19:45:20.644Z,2.90
2023-04-26T19:47:47.751Z,3.00
2023-04-26T19:50:15.107Z,2.90
2023-04-26T19:52:46.627Z,2.88
2023-04-26T19:55:13.656Z,3.15
2023-04-26T19:57:41.115Z,3.25
2023-04-26T20:00:08.651Z,3.60
2023-04-26T20:02:35.659Z,3.08
2023-04-26T20:05:02.928Z,3.60
2023-04-26T20:07:29.928Z,3.25
2023-04-26T20:09:56.724Z,3.08
2023-04-26T20:12:24.157Z,3.50
2023-04-26T20:14:51.207Z,3.10
2023-04-26T20:17:18.245Z,3.03
2023-04-26T20:19:45.110Z,3.55
2023-04-26T20:22:11.821Z,3.58
2023-04-26T20:24:38.580Z,3.50
2023-04-26T20:27:05.556Z,3.75
2023-04-26T20:29:35.853Z,3.78
2023-04-26T20:32:02.718Z,4.07
2023-04-26T20:34:29.543Z,3.60
2023-04-26T20:36:56.289Z,3.47
2023-04-26T20:39:33.800Z,3.05
2023-04-26T20:42:01.537Z,3.10
2023-04-26T20:44:28.247Z,3.55
2023-04-26T20:46:55.046Z,3.90
2023-04-26T20:49:21.733Z,3.80
2023-04-26T20:51:48.459Z,3.75
2023-04-26T20:54:15.635Z,3.75
2023-04-26T20:56:42.334Z,3.55
2023-04-26T20:59:09.424Z,3.78
2023-04-26T21:01:36.347Z,3.87
2023-04-26T21:04:03.336Z,3.90
2023-04-26T21:06:30.190Z,3.63
2023-04-26T21:08:56.923Z,3.75
2023-04-26T21:11:23.694Z,3.88
2023-04-26T21:13:50.611Z,3.97
2023-04-26T21:16:17.413Z,4.18
2023-04-26T21:18:44.202Z,4.10
2023-04-26T21:21:11.109Z,4.18
2023-04-26T21:23:40.666Z,4.38
2023-04-26T21:26:07.419Z,4.00
2023-04-26T21:28:34.089Z,4.30
2023-04-26T21:31:05.982Z,4.00
2023-04-26T21:33:33.956Z,3.90
2023-04-26T21:36:00.892Z,4.57
2023-04-26T21:38:27.752Z,4.37
2023-04-26T21:40:54.416Z,4.43
2023-04-26T21:43:21.802Z,4.00
2023-04-26T21:45:50.297Z,4.50
2023-04-26T21:48:17.090Z,5.00
2023-04-26T21:50:43.857Z,4.30
2023-04-26T21:53:10.647Z,4.97
2023-04-26T21:55:37.577Z,4.95
2023-04-26T21:58:04.286Z,5.05
2023-04-26T22:00:31.862Z,4.70
2023-04-26T22:02:59.504Z,4.30
2023-04-26T22:05:26.879Z,4.50
2023-04-26T22:07:57.308Z,4.65
2023-04-26T22:10:24.080Z,5.18
2023-04-26T22:12:50.784Z,4.90
2023-04-26T22:15:17.546Z,5.40
2023-04-26T22:17:44.359Z,5.30
2023-04-26T22:20:11.751Z,4.85
2023-04-26T22:22:38.798Z,4.88
2023-04-26T22:25:05.974Z,4.47
2023-04-26T22:27:32.739Z,4.70
2023-04-26T22:30:04.236Z,4.90
2023-04-26T22:32:39.415Z,4.88
2023-04-26T22:35:06.590Z,4.80
2023-04-26T22:37:33.282Z,4.95
2023-04-26T22:39:59.949Z,5.07
2023-04-26T22:42:26.625Z,5.07
2023-04-26T22:44:53.450Z,4.88
2023-04-26T22:47:22.764Z,5.10
2023-04-26T22:49:49.713Z,4.90
2023-04-26T22:52:28.273Z,4.33
2023-04-26T22:54:58.034Z,4.75
2023-04-26T22:57:24.752Z,4.55
2023-04-26T22:59:51.454Z,5.03
2023-04-26T23:02:18.449Z,4.90
2023-04-26T23:04:45.975Z,4.63
2023-04-26T23:07:12.707Z,4.38
2023-04-26T23:09:39.493Z,4.70
2023-04-26T23:12:06.274Z,5.07
2023-04-26T23:14:41.226Z,5.60
2023-04-26T23:17:08.023Z,5.30
2023-04-26T23:19:35.047Z,5.57
2023-04-26T23:22:01.712Z,5.45
2023-04-26T23:24:28.411Z,6.30
2023-04-26T23:26:55.162Z,5.63
2023-04-26T23:29:21.983Z,5.67
2023-04-26T23:31:48.767Z,6.05
2023-04-26T23:34:15.527Z,6.25
2023-04-26T23:36:42.385Z,6.32
2023-04-26T23:39:09.260Z,5.90
2023-04-26T23:41:36.083Z,6.03
2023-04-26T23:44:02.752Z,6.03
2023-04-26T23:46:29.687Z,5.50
2023-04-26T23:48:56.409Z,5.75
2023-04-26T23:51:23.138Z,6.00
2023-04-26T23:53:49.909Z,5.93
2023-04-26T23:56:16.677Z,5.72
2023-04-26T23:58:43.418Z,5.70
